sensor_id;sensor_type;location;lat;lon;timestamp;P1;durP1;ratioP1;P2;durP2;ratioP2
17598;SDS011;8918;52.092;5.232;2023-10-19T00:01:15;13.47;;;11.00;;
17598;SDS011;8918;52.092;5.232;2023-10-19T00:03:42;15.47;;;12.13;;
17598;SDS011;8918;52.092;5.232;2023-10-19T00:06:09;14.67;;;12.27;;
17598;SDS011;8918;52.092;5.232;2023-10-19T00:08:36;17.03;;;13.00;;
17598;SDS011;8918;52.092;5.232;2023-10-19T00:11:06;18.10;;;13.20;;
17598;SDS011;8918;52.092;5.232;2023-10-19T00:13:32;15.97;;;12.83;;
17598;SDS011;8918;52.092;5.232;2023-10-19T00:16:00;17.13;;;13.77;;
17598;SDS011;8918;52.092;5.232;2023-10-19T00:18:32;15.93;;;12.50;;
17598;SDS011;8918;52.092;5.232;2023-10-19T00:20:59;17.07;;;13.37;;
17598;SDS011;8918;52.092;5.232;2023-10-19T00:23:36;16.23;;;13.33;;
17598;SDS011;8918;52.092;5.232;2023-10-19T00:26:04;17.43;;;14.63;;
17598;SDS011;8918;52.092;5.232;2023-10-19T00:28:33;17.77;;;14.27;;
17598;SDS011;8918;52.092;5.232;2023-10-19T00:31:00;18.27;;;14.27;;
17598;SDS011;8918;52.092;5.232;2023-10-19T00:33:37;16.60;;;14.10;;
17598;SDS011;8918;52.092;5.232;2023-10-19T00:36:08;17.17;;;14.33;;
17598;SDS011;8918;52.092;5.232;2023-10-19T00:38:38;16.27;;;14.10;;
17598;SDS011;8918;52.092;5.232;2023-10-19T00:41:05;17.63;;;14.67;;
17598;SDS011;8918;52.092;5.232;2023-10-19T00:43:35;19.13;;;14.93;;
17598;SDS011;8918;52.092;5.232;2023-10-19T00:46:18;19.53;;;15.17;;
17598;SDS011;8918;52.092;5.232;2023-10-19T00:48:51;18.80;;;15.73;;
17598;SDS011;8918;52.092;5.232;2023-10-19T00:51:25;20.33;;;15.57;;
17598;SDS011;8918;52.092;5.232;2023-10-19T00:54:13;19.60;;;15.90;;
17598;SDS011;8918;52.092;5.232;2023-10-19T00:56:49;21.13;;;16.60;;
17598;SDS011;8918;52.092;5.232;2023-10-19T00:59:17;21.30;;;17.17;;
17598;SDS011;8918;52.092;5.232;2023-10-19T01:01:47;18.97;;;16.07;;
17598;SDS011;8918;52.092;5.232;2023-10-19T01:04:37;22.10;;;16.87;;
17598;SDS011;8918;52.092;5.232;2023-10-19T01:07:07;21.77;;;17.07;;
17598;SDS011;8918;52.092;5.232;2023-10-19T01:09:41;23.30;;;18.80;;
17598;SDS011;8918;52.092;5.232;2023-10-19T01:12:09;23.77;;;19.07;;
17598;SDS011;8918;52.092;5.232;2023-10-19T01:15:09;26.07;;;18.80;;
17598;SDS011;8918;52.092;5.232;2023-10-19T01:17:47;23.13;;;18.73;;
17598;SDS011;8918;52.092;5.232;2023-10-19T01:20:27;25.03;;;19.73;;
17598;SDS011;8918;52.092;5.232;2023-10-19T01:23:06;25.83;;;19.73;;
17598;SDS011;8918;52.092;5.232;2023-10-19T01:28:14;27.80;;;20.07;;
17598;SDS011;8918;52.092;5.232;2023-10-19T01:30:43;28.77;;;20.67;;
17598;SDS011;8918;52.092;5.232;2023-10-19T01:33:09;26.33;;;20.00;;
17598;SDS011;8918;52.092;5.232;2023-10-19T01:35:40;26.80;;;21.10;;
17598;SDS011;8918;52.092;5.232;2023-10-19T01:38:26;26.17;;;19.97;;
17598;SDS011;8918;52.092;5.232;2023-10-19T01:40:55;26.63;;;21.40;;
17598;SDS011;8918;52.092;5.232;2023-10-19T01:43:24;29.03;;;21.07;;
17598;SDS011;8918;52.092;5.232;2023-10-19T01:45:53;28.80;;;21.83;;
17598;SDS011;8918;52.092;5.232;2023-10-19T01:48:21;27.83;;;20.83;;
17598;SDS011;8918;52.092;5.232;2023-10-19T01:50:53;23.80;;;19.37;;
17598;SDS011;8918;52.092;5.232;2023-10-19T01:53:18;25.37;;;19.80;;
17598;SDS011;8918;52.092;5.232;2023-10-19T01:55:50;29.67;;;21.67;;
17598;SDS011;8918;52.092;5.232;2023-10-19T01:58:22;27.83;;;20.37;;
17598;SDS011;8918;52.092;5.232;2023-10-19T02:00:52;32.90;;;21.10;;
17598;SDS011;8918;52.092;5.232;2023-10-19T02:03:25;26.83;;;20.00;;
17598;SDS011;8918;52.092;5.232;2023-10-19T02:05:59;26.43;;;19.63;;
17598;SDS011;8918;52.092;5.232;2023-10-19T02:08:31;29.93;;;19.30;;
17598;SDS011;8918;52.092;5.232;2023-10-19T02:10:56;26.13;;;19.53;;
17598;SDS011;8918;52.092;5.232;2023-10-19T02:13:22;25.00;;;19.00;;
17598;SDS011;8918;52.092;5.232;2023-10-19T02:15:48;26.20;;;18.77;;
17598;SDS011;8918;52.092;5.232;2023-10-19T02:18:14;28.10;;;19.53;;
17598;SDS011;8918;52.092;5.232;2023-10-19T02:20:40;25.87;;;19.50;;
17598;SDS011;8918;52.092;5.232;2023-10-19T02:23:06;21.10;;;17.23;;
17598;SDS011;8918;52.092;5.232;2023-10-19T02:25:33;26.70;;;19.07;;
17598;SDS011;8918;52.092;5.232;2023-10-19T02:28:03;23.30;;;17.80;;
17598;SDS011;8918;52.092;5.232;2023-10-19T02:30:32;24.20;;;16.90;;
17598;SDS011;8918;52.092;5.232;2023-10-19T02:32:59;26.40;;;17.40;;
17598;SDS011;8918;52.092;5.232;2023-10-19T02:35:26;20.10;;;16.07;;
17598;SDS011;8918;52.092;5.232;2023-10-19T02:37:52;19.17;;;14.87;;
17598;SDS011;8918;52.092;5.232;2023-10-19T02:40:18;21.47;;;15.63;;
17598;SDS011;8918;52.092;5.232;2023-10-19T02:42:45;19.47;;;14.47;;
17598;SDS011;8918;52.092;5.232;2023-10-19T02:45:20;22.60;;;15.10;;
17598;SDS011;8918;52.092;5.232;2023-10-19T02:47:46;22.10;;;14.90;;
17598;SDS011;8918;52.092;5.232;2023-10-19T02:50:11;20.90;;;14.73;;
17598;SDS011;8918;52.092;5.232;2023-10-19T02:52:47;20.03;;;14.43;;
17598;SDS011;8918;52.092;5.232;2023-10-19T02:55:14;20.27;;;14.13;;
17598;SDS011;8918;52.092;5.232;2023-10-19T02:57:41;21.97;;;15.27;;
17598;SDS011;8918;52.092;5.232;2023-10-19T03:00:11;21.93;;;15.50;;
17598;SDS011;8918;52.092;5.232;2023-10-19T03:02:39;18.27;;;14.07;;
17598;SDS011;8918;52.092;5.232;2023-10-19T03:05:05;21.80;;;15.30;;
17598;SDS011;8918;52.092;5.232;2023-10-19T03:07:41;19.67;;;13.93;;
17598;SDS011;8918;52.092;5.232;2023-10-19T03:10:10;17.47;;;12.77;;
17598;SDS011;8918;52.092;5.232;2023-10-19T03:12:49;18.43;;;13.93;;
17598;SDS011;8918;52.092;5.232;2023-10-19T03:15:15;17.02;;;13.20;;
17598;SDS011;8918;52.092;5.232;2023-10-19T03:17:42;19.97;;;13.93;;
17598;SDS011;8918;52.092;5.232;2023-10-19T03:20:07;20.07;;;13.73;;
17598;SDS011;8918;52.092;5.232;2023-10-19T03:22:35;16.70;;;12.53;;
17598;SDS011;8918;52.092;5.232;2023-10-19T03:25:03;18.23;;;13.00;;
17598;SDS011;8918;52.092;5.232;2023-10-19T03:27:48;16.90;;;12.13;;
17598;SDS011;8918;52.092;5.232;2023-10-19T03:30:14;16.95;;;12.25;;
17598;SDS011;8918;52.092;5.232;2023-10-19T03:32:41;18.08;;;12.57;;
17598;SDS011;8918;52.092;5.232;2023-10-19T03:35:06;17.50;;;12.47;;
17598;SDS011;8918;52.092;5.232;2023-10-19T03:37:32;14.70;;;10.82;;
17598;SDS011;8918;52.092;5.232;2023-10-19T03:40:00;14.87;;;11.17;;
17598;SDS011;8918;52.092;5.232;2023-10-19T03:42:31;14.77;;;10.15;;
17598;SDS011;8918;52.092;5.232;2023-10-19T03:45:05;14.60;;;10.37;;
17598;SDS011;8918;52.092;5.232;2023-10-19T03:47:38;17.17;;;10.73;;
17598;SDS011;8918;52.092;5.232;2023-10-19T03:50:04;13.18;;;9.60;;
17598;SDS011;8918;52.092;5.232;2023-10-19T03:52:39;12.45;;;8.90;;
17598;SDS011;8918;52.092;5.232;2023-10-19T03:55:05;14.47;;;9.50;;
17598;SDS011;8918;52.092;5.232;2023-10-19T03:57:36;13.80;;;9.10;;
17598;SDS011;8918;52.092;5.232;2023-10-19T04:00:06;14.60;;;8.30;;
17598;SDS011;8918;52.092;5.232;2023-10-19T04:02:39;10.27;;;7.43;;
17598;SDS011;8918;52.092;5.232;2023-10-19T04:05:07;9.80;;;7.40;;
17598;SDS011;8918;52.092;5.232;2023-10-19T04:07:35;10.75;;;6.30;;
17598;SDS011;8918;52.092;5.232;2023-10-19T04:10:00;11.35;;;6.53;;
17598;SDS011;8918;52.092;5.232;2023-10-19T04:12:35;9.57;;;5.40;;
17598;SDS011;8918;52.092;5.232;2023-10-19T04:15:02;8.23;;;5.60;;
17598;SDS011;8918;52.092;5.232;2023-10-19T04:17:42;7.80;;;4.75;;
17598;SDS011;8918;52.092;5.232;2023-10-19T04:20:12;4.78;;;4.15;;
17598;SDS011;8918;52.092;5.232;2023-10-19T04:22:44;7.00;;;3.95;;
17598;SDS011;8918;52.092;5.232;2023-10-19T04:25:09;6.50;;;4.07;;
17598;SDS011;8918;52.092;5.232;2023-10-19T04:27:38;7.53;;;3.90;;
17598;SDS011;8918;52.092;5.232;2023-10-19T04:30:07;7.07;;;3.90;;
17598;SDS011;8918;52.092;5.232;2023-10-19T04:32:40;7.38;;;4.00;;
17598;SDS011;8918;52.092;5.232;2023-10-19T04:35:11;4.43;;;3.50;;
17598;SDS011;8918;52.092;5.232;2023-10-19T04:37:38;6.97;;;3.60;;
17598;SDS011;8918;52.092;5.232;2023-10-19T04:40:10;6.17;;;3.27;;
17598;SDS011;8918;52.092;5.232;2023-10-19T04:42:37;6.33;;;3.00;;
17598;SDS011;8918;52.092;5.232;2023-10-19T04:45:03;6.77;;;3.27;;
17598;SDS011;8918;52.092;5.232;2023-10-19T04:47:30;6.20;;;2.77;;
17598;SDS011;8918;52.092;5.232;2023-10-19T04:49:56;7.63;;;3.07;;
17598;SDS011;8918;52.092;5.232;2023-10-19T04:52:22;6.85;;;2.72;;
17598;SDS011;8918;52.092;5.232;2023-10-19T04:54:47;6.87;;;2.90;;
17598;SDS011;8918;52.092;5.232;2023-10-19T04:57:13;8.13;;;3.00;;
17598;SDS011;8918;52.092;5.232;2023-10-19T04:59:39;5.50;;;2.53;;
17598;SDS011;8918;52.092;5.232;2023-10-19T05:02:04;6.63;;;2.47;;
17598;SDS011;8918;52.092;5.232;2023-10-19T05:04:31;5.40;;;2.88;;
17598;SDS011;8918;52.092;5.232;2023-10-19T05:06:56;7.25;;;2.47;;
17598;SDS011;8918;52.092;5.232;2023-10-19T05:09:22;7.00;;;2.40;;
17598;SDS011;8918;52.092;5.232;2023-10-19T05:11:47;7.47;;;2.30;;
17598;SDS011;8918;52.092;5.232;2023-10-19T05:14:13;6.57;;;2.30;;
17598;SDS011;8918;52.092;5.232;2023-10-19T05:16:39;5.70;;;2.60;;
17598;SDS011;8918;52.092;5.232;2023-10-19T05:19:05;6.07;;;1.98;;
17598;SDS011;8918;52.092;5.232;2023-10-19T05:21:30;5.97;;;2.30;;
17598;SDS011;8918;52.092;5.232;2023-10-19T05:23:56;4.95;;;1.92;;
17598;SDS011;8918;52.092;5.232;2023-10-19T05:26:21;6.30;;;1.95;;
17598;SDS011;8918;52.092;5.232;2023-10-19T05:28:47;7.77;;;2.30;;
17598;SDS011;8918;52.092;5.232;2023-10-19T05:31:13;7.30;;;2.30;;
17598;SDS011;8918;52.092;5.232;2023-10-19T05:33:40;4.75;;;1.80;;
17598;SDS011;8918;52.092;5.232;2023-10-19T05:36:06;6.27;;;1.80;;
17598;SDS011;8918;52.092;5.232;2023-10-19T05:38:31;6.55;;;2.20;;
17598;SDS011;8918;52.092;5.232;2023-10-19T05:40:57;7.32;;;2.30;;
17598;SDS011;8918;52.092;5.232;2023-10-19T05:43:24;7.05;;;2.20;;
17598;SDS011;8918;52.092;5.232;2023-10-19T05:45:50;8.90;;;2.20;;
17598;SDS011;8918;52.092;5.232;2023-10-19T05:48:16;6.07;;;1.95;;
17598;SDS011;8918;52.092;5.232;2023-10-19T05:50:42;5.50;;;2.20;;
17598;SDS011;8918;52.092;5.232;2023-10-19T05:53:07;3.40;;;1.90;;
17598;SDS011;8918;52.092;5.232;2023-10-19T05:55:33;7.80;;;2.17;;
17598;SDS011;8918;52.092;5.232;2023-10-19T05:58:04;9.45;;;2.17;;
17598;SDS011;8918;52.092;5.232;2023-10-19T06:00:30;7.22;;;2.25;;
17598;SDS011;8918;52.092;5.232;2023-10-19T06:02:56;4.68;;;2.33;;
17598;SDS011;8918;52.092;5.232;2023-10-19T06:05:22;6.32;;;2.05;;
17598;SDS011;8918;52.092;5.232;2023-10-19T06:07:49;6.53;;;1.98;;
17598;SDS011;8918;52.092;5.232;2023-10-19T06:10:19;8.45;;;2.28;;
17598;SDS011;8918;52.092;5.232;2023-10-19T06:12:49;5.72;;;2.30;;
17598;SDS011;8918;52.092;5.232;2023-10-19T06:15:16;7.07;;;2.15;;
17598;SDS011;8918;52.092;5.232;2023-10-19T06:17:42;7.40;;;2.35;;
17598;SDS011;8918;52.092;5.232;2023-10-19T06:20:09;7.70;;;2.17;;
17598;SDS011;8918;52.092;5.232;2023-10-19T06:22:55;8.03;;;2.47;;
17598;SDS011;8918;52.092;5.232;2023-10-19T06:25:23;7.13;;;2.60;;
17598;SDS011;8918;52.092;5.232;2023-10-19T06:27:49;6.03;;;2.10;;
17598;SDS011;8918;52.092;5.232;2023-10-19T06:30:17;4.85;;;2.20;;
17598;SDS011;8918;52.092;5.232;2023-10-19T06:32:47;5.20;;;2.25;;
17598;SDS011;8918;52.092;5.232;2023-10-19T06:35:14;5.85;;;2.10;;
17598;SDS011;8918;52.092;5.232;2023-10-19T06:37:39;8.38;;;2.53;;
17598;SDS011;8918;52.092;5.232;2023-10-19T06:40:05;6.85;;;2.10;;
17598;SDS011;8918;52.092;5.232;2023-10-19T06:42:31;8.07;;;2.85;;
17598;SDS011;8918;52.092;5.232;2023-10-19T06:44:57;6.35;;;2.30;;
17598;SDS011;8918;52.092;5.232;2023-10-19T06:47:22;6.50;;;2.30;;
17598;SDS011;8918;52.092;5.232;2023-10-19T06:49:48;5.55;;;2.33;;
17598;SDS011;8918;52.092;5.232;2023-10-19T06:52:15;6.85;;;2.67;;
17598;SDS011;8918;52.092;5.232;2023-10-19T06:54:40;9.73;;;2.50;;
17598;SDS011;8918;52.092;5.232;2023-10-19T06:57:07;8.48;;;2.80;;
17598;SDS011;8918;52.092;5.232;2023-10-19T06:59:34;7.50;;;2.60;;
17598;SDS011;8918;52.092;5.232;2023-10-19T07:02:01;8.23;;;2.75;;
17598;SDS011;8918;52.092;5.232;2023-10-19T07:04:28;10.95;;;3.00;;
17598;SDS011;8918;52.092;5.232;2023-10-19T07:06:54;6.47;;;3.20;;
17598;SDS011;8918;52.092;5.232;2023-10-19T07:09:20;5.45;;;2.92;;
17598;SDS011;8918;52.092;5.232;2023-10-19T07:11:46;7.82;;;3.10;;
17598;SDS011;8918;52.092;5.232;2023-10-19T07:14:12;13.40;;;3.50;;
17598;SDS011;8918;52.092;5.232;2023-10-19T07:16:39;10.20;;;3.15;;
17598;SDS011;8918;52.092;5.232;2023-10-19T07:19:05;8.43;;;3.15;;
17598;SDS011;8918;52.092;5.232;2023-10-19T07:21:32;6.78;;;3.20;;
17598;SDS011;8918;52.092;5.232;2023-10-19T07:24:01;7.88;;;3.88;;
17598;SDS011;8918;52.092;5.232;2023-10-19T07:26:30;9.48;;;3.72;;
17598;SDS011;8918;52.092;5.232;2023-10-19T07:28:58;8.45;;;3.30;;
17598;SDS011;8918;52.092;5.232;2023-10-19T07:31:24;10.98;;;3.13;;
17598;SDS011;8918;52.092;5.232;2023-10-19T07:33:52;9.70;;;3.30;;
17598;SDS011;8918;52.092;5.232;2023-10-19T07:36:20;8.85;;;2.95;;
17598;SDS011;8918;52.092;5.232;2023-10-19T07:38:46;7.43;;;3.28;;
17598;SDS011;8918;52.092;5.232;2023-10-19T07:41:12;10.07;;;3.17;;
17598;SDS011;8918;52.092;5.232;2023-10-19T07:43:38;7.60;;;3.50;;
17598;SDS011;8918;52.092;5.232;2023-10-19T07:46:04;11.15;;;3.88;;
17598;SDS011;8918;52.092;5.232;2023-10-19T07:48:30;11.73;;;3.60;;
17598;SDS011;8918;52.092;5.232;2023-10-19T07:50:55;8.90;;;2.72;;
17598;SDS011;8918;52.092;5.232;2023-10-19T07:53:21;4.20;;;2.53;;
17598;SDS011;8918;52.092;5.232;2023-10-19T07:55:47;8.02;;;2.80;;
17598;SDS011;8918;52.092;5.232;2023-10-19T07:58:13;9.10;;;2.70;;
17598;SDS011;8918;52.092;5.232;2023-10-19T08:00:38;7.45;;;2.92;;
17598;SDS011;8918;52.092;5.232;2023-10-19T08:03:04;6.90;;;2.83;;
17598;SDS011;8918;52.092;5.232;2023-10-19T08:05:31;8.80;;;3.42;;
17598;SDS011;8918;52.092;5.232;2023-10-19T08:07:58;7.85;;;2.67;;
17598;SDS011;8918;52.092;5.232;2023-10-19T08:10:25;8.00;;;2.85;;
17598;SDS011;8918;52.092;5.232;2023-10-19T08:12:52;7.93;;;2.70;;
17598;SDS011;8918;52.092;5.232;2023-10-19T08:15:18;9.93;;;3.10;;
17598;SDS011;8918;52.092;5.232;2023-10-19T08:17:46;10.68;;;2.78;;
17598;SDS011;8918;52.092;5.232;2023-10-19T08:20:13;9.20;;;2.75;;
17598;SDS011;8918;52.092;5.232;2023-10-19T08:22:48;11.82;;;3.08;;
17598;SDS011;8918;52.092;5.232;2023-10-19T08:25:15;10.00;;;2.90;;
17598;SDS011;8918;52.092;5.232;2023-10-19T08:27:41;14.57;;;3.20;;
17598;SDS011;8918;52.092;5.232;2023-10-19T08:30:10;7.22;;;2.65;;
17598;SDS011;8918;52.092;5.232;2023-10-19T08:32:38;9.25;;;3.00;;
17598;SDS011;8918;52.092;5.232;2023-10-19T08:35:05;7.27;;;2.80;;
17598;SDS011;8918;52.092;5.232;2023-10-19T08:37:31;6.80;;;2.67;;
17598;SDS011;8918;52.092;5.232;2023-10-19T08:39:56;8.93;;;2.73;;
17598;SDS011;8918;52.092;5.232;2023-10-19T08:42:23;8.38;;;2.40;;
17598;SDS011;8918;52.092;5.232;2023-10-19T08:44:49;8.37;;;2.83;;
17598;SDS011;8918;52.092;5.232;2023-10-19T08:47:16;10.13;;;2.80;;
17598;SDS011;8918;52.092;5.232;2023-10-19T08:49:41;10.00;;;2.77;;
17598;SDS011;8918;52.092;5.232;2023-10-19T08:52:07;6.80;;;2.80;;
17598;SDS011;8918;52.092;5.232;2023-10-19T08:54:34;11.45;;;3.15;;
17598;SDS011;8918;52.092;5.232;2023-10-19T08:57:00;9.90;;;2.97;;
17598;SDS011;8918;52.092;5.232;2023-10-19T08:59:25;11.77;;;3.25;;
17598;SDS011;8918;52.092;5.232;2023-10-19T09:01:59;8.38;;;2.72;;
17598;SDS011;8918;52.092;5.232;2023-10-19T09:04:26;7.90;;;2.97;;
17598;SDS011;8918;52.092;5.232;2023-10-19T09:06:55;8.05;;;2.65;;
17598;SDS011;8918;52.092;5.232;2023-10-19T09:09:21;8.20;;;3.15;;
17598;SDS011;8918;52.092;5.232;2023-10-19T09:11:50;8.63;;;2.92;;
17598;SDS011;8918;52.092;5.232;2023-10-19T09:14:30;10.52;;;3.10;;
17598;SDS011;8918;52.092;5.232;2023-10-19T09:16:58;11.60;;;2.90;;
17598;SDS011;8918;52.092;5.232;2023-10-19T09:19:41;10.32;;;2.97;;
17598;SDS011;8918;52.092;5.232;2023-10-19T09:22:07;7.13;;;3.08;;
17598;SDS011;8918;52.092;5.232;2023-10-19T09:24:41;11.82;;;3.03;;
17598;SDS011;8918;52.092;5.232;2023-10-19T09:27:07;8.85;;;3.03;;
17598;SDS011;8918;52.092;5.232;2023-10-19T09:29:33;7.55;;;3.17;;
17598;SDS011;8918;52.092;5.232;2023-10-19T09:31:59;8.65;;;3.10;;
17598;SDS011;8918;52.092;5.232;2023-10-19T09:34:29;13.23;;;4.13;;
17598;SDS011;8918;52.092;5.232;2023-10-19T09:37:01;8.32;;;3.30;;
17598;SDS011;8918;52.092;5.232;2023-10-19T09:39:28;9.45;;;3.22;;
17598;SDS011;8918;52.092;5.232;2023-10-19T09:42:10;10.30;;;3.40;;
17598;SDS011;8918;52.092;5.232;2023-10-19T09:47:12;7.57;;;3.72;;
17598;SDS011;8918;52.092;5.232;2023-10-19T09:49:42;9.52;;;3.65;;
17598;SDS011;8918;52.092;5.232;2023-10-19T09:52:09;9.23;;;3.45;;
17598;SDS011;8918;52.092;5.232;2023-10-19T09:54:50;8.90;;;3.20;;
17598;SDS011;8918;52.092;5.232;2023-10-19T09:57:31;7.78;;;3.65;;
17598;SDS011;8918;52.092;5.232;2023-10-19T10:00:02;9.05;;;3.45;;
17598;SDS011;8918;52.092;5.232;2023-10-19T10:02:36;12.30;;;3.15;;
17598;SDS011;8918;52.092;5.232;2023-10-19T10:05:03;10.13;;;3.38;;
17598;SDS011;8918;52.092;5.232;2023-10-19T10:07:29;9.60;;;3.63;;
17598;SDS011;8918;52.092;5.232;2023-10-19T10:09:55;10.27;;;3.78;;
17598;SDS011;8918;52.092;5.232;2023-10-19T10:14:54;10.13;;;3.15;;
17598;SDS011;8918;52.092;5.232;2023-10-19T10:17:23;10.25;;;3.70;;
17598;SDS011;8918;52.092;5.232;2023-10-19T10:19:53;7.53;;;3.20;;
17598;SDS011;8918;52.092;5.232;2023-10-19T10:22:21;10.55;;;3.30;;
17598;SDS011;8918;52.092;5.232;2023-10-19T10:24:47;7.35;;;3.13;;
17598;SDS011;8918;52.092;5.232;2023-10-19T10:27:21;14.40;;;3.95;;
17598;SDS011;8918;52.092;5.232;2023-10-19T10:29:56;9.77;;;3.28;;
17598;SDS011;8918;52.092;5.232;2023-10-19T10:38:04;11.63;;;3.30;;
17598;SDS011;8918;52.092;5.232;2023-10-19T10:40:31;10.48;;;3.38;;
17598;SDS011;8918;52.092;5.232;2023-10-19T10:43:07;9.25;;;3.08;;
17598;SDS011;8918;52.092;5.232;2023-10-19T10:45:32;9.15;;;3.15;;
17598;SDS011;8918;52.092;5.232;2023-10-19T10:47:58;9.02;;;3.50;;
17598;SDS011;8918;52.092;5.232;2023-10-19T10:50:26;10.30;;;3.40;;
17598;SDS011;8918;52.092;5.232;2023-10-19T10:52:53;7.50;;;3.20;;
17598;SDS011;8918;52.092;5.232;2023-10-19T10:55:22;12.77;;;3.45;;
17598;SDS011;8918;52.092;5.232;2023-10-19T10:57:49;7.90;;;3.40;;
17598;SDS011;8918;52.092;5.232;2023-10-19T11:00:14;8.30;;;3.55;;
17598;SDS011;8918;52.092;5.232;2023-10-19T11:02:41;11.35;;;3.55;;
17598;SDS011;8918;52.092;5.232;2023-10-19T11:05:15;7.35;;;3.40;;
17598;SDS011;8918;52.092;5.232;2023-10-19T11:07:49;11.68;;;3.78;;
17598;SDS011;8918;52.092;5.232;2023-10-19T11:10:28;11.23;;;3.28;;
17598;SDS011;8918;52.092;5.232;2023-10-19T11:13:04;11.57;;;3.63;;
17598;SDS011;8918;52.092;5.232;2023-10-19T11:15:34;12.30;;;3.47;;
17598;SDS011;8918;52.092;5.232;2023-10-19T11:18:02;11.20;;;3.45;;
17598;SDS011;8918;52.092;5.232;2023-10-19T11:20:28;13.05;;;3.45;;
17598;SDS011;8918;52.092;5.232;2023-10-19T11:22:54;15.07;;;3.20;;
17598;SDS011;8918;52.092;5.232;2023-10-19T11:25:22;9.57;;;2.80;;
17598;SDS011;8918;52.092;5.232;2023-10-19T11:27:55;9.93;;;2.83;;
17598;SDS011;8918;52.092;5.232;2023-10-19T11:32:54;10.00;;;2.72;;
17598;SDS011;8918;52.092;5.232;2023-10-19T11:35:25;12.82;;;2.85;;
17598;SDS011;8918;52.092;5.232;2023-10-19T11:37:52;7.45;;;3.17;;
17598;SDS011;8918;52.092;5.232;2023-10-19T11:40:20;7.40;;;2.53;;
17598;SDS011;8918;52.092;5.232;2023-10-19T11:42:46;8.25;;;2.50;;
17598;SDS011;8918;52.092;5.232;2023-10-19T11:45:12;9.18;;;2.90;;
17598;SDS011;8918;52.092;5.232;2023-10-19T11:47:38;9.20;;;2.50;;
17598;SDS011;8918;52.092;5.232;2023-10-19T11:50:04;7.60;;;2.53;;
17598;SDS011;8918;52.092;5.232;2023-10-19T11:52:30;6.38;;;2.47;;
17598;SDS011;8918;52.092;5.232;2023-10-19T11:54:56;9.65;;;2.85;;
17598;SDS011;8918;52.092;5.232;2023-10-19T11:57:23;6.95;;;2.75;;
17598;SDS011;8918;52.092;5.232;2023-10-19T11:59:49;9.80;;;2.90;;
17598;SDS011;8918;52.092;5.232;2023-10-19T12:02:20;9.52;;;2.75;;
17598;SDS011;8918;52.092;5.232;2023-10-19T12:04:46;9.38;;;2.72;;
17598;SDS011;8918;52.092;5.232;2023-10-19T12:07:12;7.18;;;2.60;;
17598;SDS011;8918;52.092;5.232;2023-10-19T12:09:37;8.65;;;3.05;;
17598;SDS011;8918;52.092;5.232;2023-10-19T12:12:06;7.72;;;2.40;;
17598;SDS011;8918;52.092;5.232;2023-10-19T12:14:36;8.57;;;2.20;;
17598;SDS011;8918;52.092;5.232;2023-10-19T12:17:02;10.60;;;2.70;;
17598;SDS011;8918;52.092;5.232;2023-10-19T12:19:31;10.27;;;2.60;;
17598;SDS011;8918;52.092;5.232;2023-10-19T12:21:57;10.10;;;2.65;;
17598;SDS011;8918;52.092;5.232;2023-10-19T12:24:24;7.30;;;2.90;;
17598;SDS011;8918;52.092;5.232;2023-10-19T12:26:53;10.80;;;3.28;;
17598;SDS011;8918;52.092;5.232;2023-10-19T12:29:18;8.07;;;2.85;;
17598;SDS011;8918;52.092;5.232;2023-10-19T12:31:46;9.15;;;3.30;;
17598;SDS011;8918;52.092;5.232;2023-10-19T12:34:12;11.27;;;2.90;;
17598;SDS011;8918;52.092;5.232;2023-10-19T12:36:38;8.02;;;2.97;;
17598;SDS011;8918;52.092;5.232;2023-10-19T12:39:05;9.68;;;3.00;;
17598;SDS011;8918;52.092;5.232;2023-10-19T12:41:31;10.27;;;3.17;;
17598;SDS011;8918;52.092;5.232;2023-10-19T12:43:57;8.52;;;2.80;;
17598;SDS011;8918;52.092;5.232;2023-10-19T12:46:23;8.40;;;2.80;;
17598;SDS011;8918;52.092;5.232;2023-10-19T12:48:54;10.13;;;2.88;;
17598;SDS011;8918;52.092;5.232;2023-10-19T12:51:21;8.68;;;2.63;;
17598;SDS011;8918;52.092;5.232;2023-10-19T12:53:53;10.70;;;2.80;;
17598;SDS011;8918;52.092;5.232;2023-10-19T12:56:20;8.75;;;2.67;;
17598;SDS011;8918;52.092;5.232;2023-10-19T12:58:46;10.70;;;3.40;;
17598;SDS011;8918;52.092;5.232;2023-10-19T13:01:13;9.63;;;3.00;;
17598;SDS011;8918;52.092;5.232;2023-10-19T13:03:43;11.55;;;3.60;;
17598;SDS011;8918;52.092;5.232;2023-10-19T13:06:11;12.50;;;3.60;;
17598;SDS011;8918;52.092;5.232;2023-10-19T13:08:37;12.10;;;3.35;;
17598;SDS011;8918;52.092;5.232;2023-10-19T13:11:05;11.18;;;3.67;;
17598;SDS011;8918;52.092;5.232;2023-10-19T13:13:31;11.02;;;3.50;;
17598;SDS011;8918;52.092;5.232;2023-10-19T13:15:57;10.43;;;3.33;;
17598;SDS011;8918;52.092;5.232;2023-10-19T13:18:23;11.27;;;3.65;;
17598;SDS011;8918;52.092;5.232;2023-10-19T13:20:55;8.70;;;3.70;;
17598;SDS011;8918;52.092;5.232;2023-10-19T13:23:21;13.80;;;4.30;;
17598;SDS011;8918;52.092;5.232;2023-10-19T13:25:47;11.52;;;4.00;;
17598;SDS011;8918;52.092;5.232;2023-10-19T13:28:27;12.27;;;4.03;;
17598;SDS011;8918;52.092;5.232;2023-10-19T13:30:53;10.70;;;3.80;;
17598;SDS011;8918;52.092;5.232;2023-10-19T13:33:19;10.48;;;4.10;;
17598;SDS011;8918;52.092;5.232;2023-10-19T13:35:49;9.48;;;4.00;;
17598;SDS011;8918;52.092;5.232;2023-10-19T13:38:15;10.57;;;3.83;;
17598;SDS011;8918;52.092;5.232;2023-10-19T13:40:42;8.23;;;3.63;;
17598;SDS011;8918;52.092;5.232;2023-10-19T13:43:10;11.75;;;4.13;;
17598;SDS011;8918;52.092;5.232;2023-10-19T13:45:40;14.55;;;4.25;;
17598;SDS011;8918;52.092;5.232;2023-10-19T13:48:08;11.85;;;4.03;;
17598;SDS011;8918;52.092;5.232;2023-10-19T13:50:48;10.82;;;4.30;;
17598;SDS011;8918;52.092;5.232;2023-10-19T13:53:14;10.55;;;4.03;;
17598;SDS011;8918;52.092;5.232;2023-10-19T13:55:40;10.82;;;4.50;;
17598;SDS011;8918;52.092;5.232;2023-10-19T13:58:06;11.65;;;4.22;;
17598;SDS011;8918;52.092;5.232;2023-10-19T14:00:32;12.38;;;4.57;;
17598;SDS011;8918;52.092;5.232;2023-10-19T14:03:04;15.45;;;4.30;;
17598;SDS011;8918;52.092;5.232;2023-10-19T14:05:30;12.38;;;4.00;;
17598;SDS011;8918;52.092;5.232;2023-10-19T14:08:14;10.88;;;4.50;;
17598;SDS011;8918;52.092;5.232;2023-10-19T14:10:41;12.35;;;4.38;;
17598;SDS011;8918;52.092;5.232;2023-10-19T14:13:10;11.05;;;4.20;;
17598;SDS011;8918;52.092;5.232;2023-10-19T14:15:39;12.00;;;4.00;;
17598;SDS011;8918;52.092;5.232;2023-10-19T14:18:05;10.40;;;4.13;;
17598;SDS011;8918;52.092;5.232;2023-10-19T14:20:31;10.93;;;4.22;;
17598;SDS011;8918;52.092;5.232;2023-10-19T14:22:59;9.30;;;3.65;;
17598;SDS011;8918;52.092;5.232;2023-10-19T14:25:25;11.82;;;4.20;;
17598;SDS011;8918;52.092;5.232;2023-10-19T14:27:52;15.45;;;4.68;;
17598;SDS011;8918;52.092;5.232;2023-10-19T14:30:23;12.45;;;4.80;;
17598;SDS011;8918;52.092;5.232;2023-10-19T14:32:50;12.48;;;4.30;;
17598;SDS011;8918;52.092;5.232;2023-10-19T14:35:17;12.10;;;3.90;;
17598;SDS011;8918;52.092;5.232;2023-10-19T14:37:45;15.85;;;4.60;;
17598;SDS011;8918;52.092;5.232;2023-10-19T14:40:16;10.15;;;3.80;;
17598;SDS011;8918;52.092;5.232;2023-10-19T14:42:45;11.77;;;3.72;;
17598;SDS011;8918;52.092;5.232;2023-10-19T14:45:14;12.95;;;3.80;;
17598;SDS011;8918;52.092;5.232;2023-10-19T14:47:46;11.30;;;4.38;;
17598;SDS011;8918;52.092;5.232;2023-10-19T14:50:13;12.32;;;4.30;;
17598;SDS011;8918;52.092;5.232;2023-10-19T14:52:46;13.40;;;4.38;;
17598;SDS011;8918;52.092;5.232;2023-10-19T14:55:14;14.95;;;4.65;;
17598;SDS011;8918;52.092;5.232;2023-10-19T14:57:41;13.02;;;4.60;;
17598;SDS011;8918;52.092;5.232;2023-10-19T15:00:08;13.32;;;4.70;;
17598;SDS011;8918;52.092;5.232;2023-10-19T15:02:51;14.20;;;4.53;;
17598;SDS011;8918;52.092;5.232;2023-10-19T15:05:21;10.30;;;4.15;;
17598;SDS011;8918;52.092;5.232;2023-10-19T15:07:49;12.73;;;4.78;;
17598;SDS011;8918;52.092;5.232;2023-10-19T15:10:19;11.65;;;4.10;;
17598;SDS011;8918;52.092;5.232;2023-10-19T15:12:49;8.35;;;3.97;;
17598;SDS011;8918;52.092;5.232;2023-10-19T15:15:15;13.75;;;4.45;;